Terminal Aerodrome Forecast
Issued by NWS Binghamton, NY

Home | Current Version | Previous Version | Text Only | Print | Product List | Glossary On
Versions: 1 2 3 4 5 6 7 8 9 10 11 12 13 14 15 16 17 18 19
000
FTUS41 KBGM 290400 AAA
TAFBGM
TAF AMD
KBGM 290405Z 2904/2924 32008KT P6SM -SHRA OVC040
     FM290600 31006KT P6SM SCT250
     FM290800 29004KT 3SM BR SCT250
     FM291200 29004KT P6SM SCT250
     FM291500 30007KT P6SM BKN035=

USA.gov is the U.S. government's official web portal to all federal, state and local government web resources and services.